createdAt,value
2022-11-28T00:00:22.690Z,101395.34
2022-11-28T00:03:25.092Z,101398.94
2022-11-28T00:06:27.582Z,101389.37
2022-11-28T00:09:29.543Z,101388.66
2022-11-28T00:12:31.125Z,101388.72
2022-11-28T00:15:32.887Z,101386.91
2022-11-28T00:18:35.027Z,101391.72
2022-11-28T00:21:36.946Z,101383.19
2022-11-28T00:24:40.536Z,101383.31
2022-11-28T00:27:42.303Z,101377.69
2022-11-28T00:30:43.844Z,101372.47
2022-11-28T00:33:45.854Z,101377.62
2022-11-28T00:36:47.875Z,101376.84
2022-11-28T00:39:49.438Z,101372.91
2022-11-28T00:42:50.993Z,101381.88
2022-11-28T00:45:52.579Z,101374.47
2022-11-28T00:48:54.292Z,101371.88
2022-11-28T00:51:55.879Z,101372.78
2022-11-28T00:54:57.436Z,101378.72
2022-11-28T00:57:59.075Z,101374.47
2022-11-28T01:01:01.237Z,101379.63
2022-11-28T01:04:07.238Z,101380.84
2022-11-28T01:07:08.783Z,101374.03
2022-11-28T01:10:11.816Z,101375.59
2022-11-28T01:13:13.429Z,101372.09
2022-11-28T01:16:15.499Z,101370.75
2022-11-28T01:19:17.478Z,101374.47
2022-11-28T01:22:19.036Z,101371.78
2022-11-28T01:25:20.839Z,101382.34
2022-11-28T01:28:22.688Z,101376.28
2022-11-28T01:31:26.648Z,101376.28
2022-11-28T01:34:28.244Z,101386.03
2022-11-28T01:37:30.346Z,101384.12
2022-11-28T01:40:32.402Z,101376.37
2022-11-28T01:43:35.327Z,101376.16
2022-11-28T01:46:37.226Z,101376.41
2022-11-28T01:49:39.320Z,101361.12
2022-11-28T01:52:45.480Z,101361.25
2022-11-28T01:55:54.436Z,101361.00
2022-11-28T01:59:02.473Z,101367.38
2022-11-28T02:02:07.587Z,101360.91
2022-11-28T02:05:09.485Z,101356.63
2022-11-28T02:08:11.087Z,101355.75
2022-11-28T02:11:30.115Z,101357.75
2022-11-28T02:14:44.592Z,101357.31
2022-11-28T02:18:13.349Z,101349.78
2022-11-28T02:21:38.737Z,101344.06
2022-11-28T02:25:01.966Z,101340.44
2022-11-28T02:28:15.591Z,101343.38
2022-11-28T02:31:26.085Z,101335.31
2022-11-28T02:34:33.859Z,101330.81
2022-11-28T02:37:49.098Z,101335.19
2022-11-28T02:41:14.196Z,101328.81
2022-11-28T02:44:24.112Z,101330.34
2022-11-28T02:47:41.044Z,101333.81
2022-11-28T02:51:26.097Z,101325.25
2022-11-28T02:54:28.988Z,101318.81
2022-11-28T02:57:38.715Z,101315.53
2022-11-28T03:00:45.479Z,101314.41
2022-11-28T03:04:11.847Z,101306.97
2022-11-28T03:07:35.170Z,101307.87
2022-11-28T03:10:50.815Z,101313.41
2022-11-28T03:14:09.141Z,101301.84
2022-11-28T03:17:24.903Z,101300.28
2022-11-28T03:20:38.412Z,101297.81
2022-11-28T03:23:48.880Z,101299.19
2022-11-28T03:27:32.073Z,101300.38
2022-11-28T03:30:48.376Z,101290.75
2022-11-28T03:33:57.192Z,101292.81
2022-11-28T03:37:08.674Z,101292.62
2022-11-28T03:40:15.267Z,101290.75
2022-11-28T03:43:21.953Z,101292.62
2022-11-28T03:46:34.834Z,101284.25
2022-11-28T03:49:42.543Z,101283.91
2022-11-28T03:52:54.246Z,101280.28
2022-11-28T03:56:14.232Z,101281.44
2022-11-28T03:59:18.453Z,101281.75
2022-11-28T04:02:38.893Z,101276.03
2022-11-28T04:05:52.926Z,101274.34
2022-11-28T04:09:14.624Z,101267.22
2022-11-28T04:12:48.060Z,101267.97
2022-11-28T04:16:08.096Z,101262.28
2022-11-28T04:19:41.967Z,101261.94
2022-11-28T04:22:51.410Z,101258.47
2022-11-28T04:25:58.110Z,101257.09
2022-11-28T04:29:03.658Z,101252.06
2022-11-28T04:32:08.115Z,101256.75
2022-11-28T04:35:14.646Z,101260.81
2022-11-28T04:38:17.428Z,101267.09
2022-11-28T04:41:23.499Z,101251.72
2022-11-28T04:44:31.284Z,101257.66
2022-11-28T04:47:32.917Z,101259.25
2022-11-28T04:51:15.400Z,101260.47
2022-11-28T04:54:40.456Z,101248.28
2022-11-28T04:57:57.345Z,101254.41
2022-11-28T05:01:01.818Z,101250.06
2022-11-28T05:04:03.729Z,101237.69
2022-11-28T05:07:08.007Z,101239.84
2022-11-28T05:10:11.845Z,101232.84
2022-11-28T05:13:13.859Z,101227.59
2022-11-28T05:16:16.548Z,101230.72
2022-11-28T05:19:18.481Z,101225.34
2022-11-28T05:22:20.152Z,101227.69
2022-11-28T05:25:21.961Z,101230.34
2022-11-28T05:28:23.553Z,101224.16
2022-11-28T05:31:25.283Z,101224.16
2022-11-28T05:34:26.931Z,101222.25
2022-11-28T05:37:28.605Z,101232.03
2022-11-28T05:40:30.182Z,101232.03
2022-11-28T05:43:31.835Z,101219.91
2022-11-28T05:46:33.485Z,101226.66
2022-11-28T05:49:35.211Z,101220.78
2022-11-28T05:52:36.757Z,101220.69
2022-11-28T05:55:39.931Z,101226.22
2022-11-28T05:58:42.185Z,101229.91
2022-11-28T06:01:44.000Z,101219.09
2022-11-28T06:04:45.609Z,101223.63
2022-11-28T06:07:47.361Z,101231.34
2022-11-28T06:10:57.114Z,101232.34
2022-11-28T06:13:59.047Z,101233.16
2022-11-28T06:17:00.672Z,101233.34
2022-11-28T06:20:02.327Z,101237.84
2022-11-28T06:23:03.899Z,101243.16
2022-11-28T06:26:08.162Z,101233.53
2022-11-28T06:29:09.725Z,101238.59
2022-11-28T06:32:11.360Z,101243.72
2022-11-28T06:35:12.958Z,101247.13
2022-11-28T06:38:14.659Z,101251.03
2022-11-28T06:41:19.159Z,101252.47
2022-11-28T06:44:20.703Z,101256.16
2022-11-28T06:47:22.437Z,101257.88
2022-11-28T06:50:24.035Z,101250.37
2022-11-28T06:53:31.257Z,101255.97
2022-11-28T06:56:33.092Z,101261.81
2022-11-28T06:59:34.717Z,101261.59
2022-11-28T07:02:36.361Z,101257.88
2022-11-28T07:05:38.248Z,101255.66
2022-11-28T07:08:40.303Z,101251.97
2022-11-28T07:11:42.670Z,101252.75
2022-11-28T07:14:44.254Z,101257.22
2022-11-28T07:17:45.852Z,101253.31
2022-11-28T07:20:47.424Z,101254.88
2022-11-28T07:23:48.991Z,101258.69
2022-11-28T07:26:50.555Z,101261.34
2022-11-28T07:29:52.120Z,101263.03
2022-11-28T07:32:53.679Z,101270.13
2022-11-28T07:35:55.434Z,101266.97
2022-11-28T07:38:59.526Z,101266.63
2022-11-28T07:42:01.088Z,101270.00
2022-11-28T07:45:03.007Z,101275.16
2022-11-28T07:48:04.611Z,101268.41
2022-11-28T07:51:12.385Z,101258.78
2022-11-28T07:54:13.947Z,101259.81
2022-11-28T07:57:15.632Z,101256.66
2022-11-28T08:00:18.001Z,101255.44
2022-11-28T08:03:19.644Z,101253.19
2022-11-28T08:06:24.447Z,101252.97
2022-11-28T08:09:26.039Z,101249.56
2022-11-28T08:12:27.579Z,101240.75
2022-11-28T08:15:31.728Z,101246.44
2022-11-28T08:18:36.419Z,101248.66
2022-11-28T08:21:38.801Z,101241.50
2022-11-28T08:24:40.793Z,101252.62
2022-11-28T08:27:42.592Z,101253.97
2022-11-28T08:30:44.210Z,101245.78
2022-11-28T08:33:48.062Z,101249.44
2022-11-28T08:36:50.239Z,101251.69
2022-11-28T08:39:51.818Z,101259.19
2022-11-28T08:42:53.378Z,101262.56
2022-11-28T08:45:55.188Z,101259.69
2022-11-28T08:48:56.775Z,101269.19
2022-11-28T08:51:58.721Z,101265.66
2022-11-28T08:55:00.312Z,101259.88
2022-11-28T08:58:01.851Z,101260.37
2022-11-28T09:01:04.127Z,101261.94
2022-11-28T09:04:05.732Z,101258.78
2022-11-28T09:07:07.344Z,101256.84
2022-11-28T09:10:09.305Z,101248.53
2022-11-28T09:13:12.865Z,101247.53
2022-11-28T09:16:15.315Z,101245.06
2022-11-28T09:19:16.920Z,101249.28
2022-11-28T09:22:18.506Z,101242.25
2022-11-28T09:25:20.103Z,101241.59
2022-11-28T09:28:21.926Z,101231.06
2022-11-28T09:31:23.626Z,101236.94
2022-11-28T09:34:25.269Z,101222.31
2022-11-28T09:37:29.560Z,101220.88
2022-11-28T09:40:40.461Z,101218.97
2022-11-28T09:43:45.380Z,101216.69
2022-11-28T09:46:50.222Z,101210.66
2022-11-28T09:50:10.607Z,101204.62
2022-11-28T09:53:24.570Z,101202.25
2022-11-28T09:56:26.761Z,101204.53
2022-11-28T09:59:30.637Z,101200.00
2022-11-28T10:02:44.883Z,101192.41
2022-11-28T10:06:00.103Z,101192.25
2022-11-28T10:09:11.293Z,101193.03
2022-11-28T10:12:12.788Z,101193.47
2022-11-28T10:15:20.108Z,101193.72
2022-11-28T10:18:38.599Z,101190.41
2022-11-28T10:21:57.869Z,101182.56
2022-11-28T10:25:06.842Z,101184.25
2022-11-28T10:28:17.514Z,101178.16
2022-11-28T10:31:21.241Z,101177.56
2022-11-28T10:34:43.824Z,101178.34
2022-11-28T10:37:45.521Z,101174.91
2022-11-28T10:40:54.182Z,101171.97
2022-11-28T10:44:21.159Z,101163.03
2022-11-28T10:47:32.278Z,101164.16
2022-11-28T10:50:46.478Z,101165.28
2022-11-28T10:53:58.013Z,101164.81
2022-11-28T10:57:05.758Z,101152.41
2022-11-28T11:00:12.228Z,101148.03
2022-11-28T11:03:17.443Z,101152.13
2022-11-28T11:06:19.015Z,101154.09
2022-11-28T11:09:20.550Z,101151.50
2022-11-28T11:12:30.611Z,101154.50
2022-11-28T11:15:32.744Z,101144.78
2022-11-28T11:18:38.069Z,101147.88
2022-11-28T11:21:39.635Z,101146.97
2022-11-28T11:24:41.170Z,101145.06
2022-11-28T11:27:58.075Z,101146.81
2022-11-28T11:31:02.542Z,101148.00
2022-11-28T11:34:07.516Z,101140.12
2022-11-28T11:37:20.304Z,101145.84
2022-11-28T11:40:29.107Z,101139.22
2022-11-28T11:43:33.515Z,101137.44
2022-11-28T11:46:50.165Z,101131.81
2022-11-28T11:50:03.642Z,101133.78
2022-11-28T11:53:11.277Z,101137.81
2022-11-28T11:56:14.105Z,101137.59
2022-11-28T11:59:21.600Z,101123.91
2022-11-28T12:02:32.346Z,101127.38
2022-11-28T12:09:43.861Z,101125.34
2022-11-28T12:12:45.665Z,101126.16
2022-11-28T12:16:01.849Z,101123.94
2022-11-28T12:19:36.445Z,101120.44
2022-11-28T12:22:56.491Z,101122.91
2022-11-28T12:26:00.796Z,101121.31
2022-11-28T12:29:21.909Z,101119.41
2022-11-28T12:32:38.631Z,101122.44
2022-11-28T12:35:43.755Z,101112.28
2022-11-28T12:39:11.311Z,101116.75
2022-11-28T12:42:22.037Z,101114.75
2022-11-28T12:45:40.234Z,101112.97
2022-11-28T12:48:53.445Z,101111.94
2022-11-28T12:52:17.877Z,101110.03
2022-11-28T12:55:36.909Z,101115.84
2022-11-28T12:59:19.121Z,101106.00
2022-11-28T13:02:45.602Z,101113.38
2022-11-28T13:05:58.109Z,101115.97
2022-11-28T13:09:24.551Z,101122.69
2022-11-28T13:12:43.032Z,101125.97
2022-11-28T13:16:15.314Z,101128.41
2022-11-28T13:19:38.310Z,101126.41
2022-11-28T13:22:52.985Z,101123.25
2022-11-28T13:26:07.945Z,101128.06
2022-11-28T13:29:21.683Z,101129.63
2022-11-28T13:32:29.124Z,101135.91
2022-11-28T13:35:31.564Z,101132.44
2022-11-28T13:39:11.183Z,101129.97
2022-11-28T13:49:29.618Z,101126.16
2022-11-28T13:52:32.772Z,101126.50
2022-11-28T13:55:46.744Z,101124.69
2022-11-28T13:59:00.850Z,101119.66
2022-11-28T14:02:16.840Z,101111.81
2022-11-28T14:05:35.518Z,101108.59
2022-11-28T14:08:41.323Z,101107.34
2022-11-28T14:11:56.908Z,101102.63
2022-11-28T14:15:23.866Z,101099.69
2022-11-28T14:18:56.429Z,101101.28
2022-11-28T14:22:04.707Z,101092.53
2022-11-28T14:25:23.445Z,101100.31
2022-11-28T14:28:36.971Z,101099.47
2022-11-28T14:31:39.900Z,101099.91
2022-11-28T14:34:46.345Z,101098.56
2022-11-28T14:37:55.209Z,101100.22
2022-11-28T14:40:59.785Z,101095.16
2022-11-28T14:44:39.193Z,101101.75
2022-11-28T14:47:43.032Z,101101.28
2022-11-28T14:50:49.410Z,101096.56
2022-11-28T14:53:51.948Z,101096.88
2022-11-28T14:56:59.520Z,101102.16
2022-11-28T15:00:17.490Z,101095.53
2022-11-28T15:03:45.496Z,101097.97
2022-11-28T15:06:50.229Z,101100.84
2022-11-28T15:10:22.624Z,101095.78
2022-11-28T15:13:48.828Z,101100.50
2022-11-28T15:16:54.798Z,101098.56
2022-11-28T15:19:59.007Z,101109.38
2022-11-28T15:23:00.654Z,101100.47
2022-11-28T15:26:03.573Z,101099.62
2022-11-28T15:29:28.007Z,101091.94
2022-11-28T15:32:31.545Z,101080.38
2022-11-28T15:35:33.116Z,101089.16
2022-11-28T15:38:36.638Z,101088.88
2022-11-28T15:41:38.205Z,101084.53
2022-11-28T15:44:43.172Z,101086.97
2022-11-28T15:47:46.701Z,101083.78
2022-11-28T15:50:51.472Z,101080.75
2022-11-28T15:53:53.228Z,101091.53
2022-11-28T15:56:58.464Z,101089.47
2022-11-28T16:00:01.515Z,101095.94
2022-11-28T16:03:04.503Z,101096.06
2022-11-28T16:06:06.457Z,101097.38
2022-11-28T16:09:23.859Z,101096.38
2022-11-28T16:12:26.673Z,101090.81
2022-11-28T16:15:29.011Z,101089.28
2022-11-28T16:18:31.396Z,101089.78
2022-11-28T16:21:37.703Z,101085.56
2022-11-28T16:24:47.798Z,101087.87
2022-11-28T16:27:53.160Z,101086.34
2022-11-28T16:30:57.189Z,101088.28
2022-11-28T16:33:59.876Z,101082.88
2022-11-28T16:37:01.508Z,101090.84
2022-11-28T16:40:13.760Z,101091.22
2022-11-28T16:43:35.884Z,101089.16
2022-11-28T16:46:59.976Z,101083.16
2022-11-28T16:50:16.083Z,101087.75
2022-11-28T16:53:57.659Z,101088.63
2022-11-28T16:57:10.766Z,101088.03
2022-11-28T17:00:13.153Z,101089.44
2022-11-28T17:03:41.784Z,101094.06
2022-11-28T17:06:43.218Z,101093.66
2022-11-28T17:09:46.960Z,101091.22
2022-11-28T17:12:48.985Z,101088.28
2022-11-28T17:15:50.785Z,101089.94
2022-11-28T17:18:52.965Z,101092.62
2022-11-28T17:21:58.184Z,101096.22
2022-11-28T17:25:01.719Z,101092.62
2022-11-28T17:28:03.870Z,101096.72
2022-11-28T17:31:06.505Z,101092.34
2022-11-28T17:34:15.724Z,101091.84
2022-11-28T17:37:17.753Z,101092.91
2022-11-28T17:40:36.480Z,101097.59
2022-11-28T17:43:39.318Z,101104.50
2022-11-28T17:46:41.525Z,101102.22
2022-11-28T17:49:46.398Z,101105.66
2022-11-28T17:52:48.881Z,101105.13
2022-11-28T17:55:52.566Z,101103.97
2022-11-28T17:58:55.126Z,101105.66
2022-11-28T18:01:56.805Z,101101.78
2022-11-28T18:05:01.514Z,101108.28
2022-11-28T18:08:03.807Z,101101.50
2022-11-28T18:11:08.311Z,101107.00
2022-11-28T18:14:11.126Z,101107.03
2022-11-28T18:17:13.084Z,101101.50
2022-11-28T18:20:15.081Z,101104.28
2022-11-28T18:23:17.099Z,101107.63
2022-11-28T18:26:23.296Z,101107.19
2022-11-28T18:29:25.412Z,101103.38
2022-11-28T18:32:27.414Z,101115.41
2022-11-28T18:35:30.485Z,101113.38
2022-11-28T18:38:32.486Z,101117.22
2022-11-28T18:41:34.893Z,101116.81
2022-11-28T18:44:36.954Z,101116.91
2022-11-28T18:47:39.131Z,101123.44
2022-11-28T18:50:41.053Z,101119.22
2022-11-28T18:53:43.180Z,101123.44
2022-11-28T18:56:45.080Z,101115.97
2022-11-28T18:59:54.404Z,101117.72
2022-11-28T19:02:57.256Z,101124.91
2022-11-28T19:05:59.658Z,101124.78
2022-11-28T19:09:04.054Z,101117.88
2022-11-28T19:12:06.892Z,101119.44
2022-11-28T19:15:11.189Z,101115.31
2022-11-28T19:18:14.127Z,101122.56
2022-11-28T19:21:19.351Z,101111.00
2022-11-28T19:24:21.418Z,101112.38
2022-11-28T19:27:31.027Z,101111.91
2022-11-28T19:30:33.144Z,101111.53
2022-11-28T19:33:35.527Z,101106.75
2022-11-28T19:36:41.425Z,101112.69
2022-11-28T19:39:43.978Z,101109.66
2022-11-28T19:42:46.356Z,101112.56
2022-11-28T19:45:56.093Z,101112.28
2022-11-28T19:48:58.722Z,101117.81
2022-11-28T19:52:00.403Z,101122.31
2022-11-28T19:55:02.451Z,101115.75
2022-11-28T19:58:04.575Z,101120.81
2022-11-28T20:01:13.123Z,101119.88
2022-11-28T20:04:15.296Z,101121.06
2022-11-28T20:07:17.651Z,101125.81
2022-11-28T20:10:19.783Z,101128.59
2022-11-28T20:13:22.026Z,101119.97
2022-11-28T20:16:24.388Z,101125.88
2022-11-28T20:19:26.660Z,101115.19
2022-11-28T20:22:28.892Z,101122.47
2022-11-28T20:25:30.979Z,101122.94
2022-11-28T20:28:35.075Z,101120.31
2022-11-28T20:31:42.486Z,101120.22
2022-11-28T20:34:44.623Z,101125.09
2022-11-28T20:37:47.265Z,101121.69
2022-11-28T20:40:49.316Z,101127.22
2022-11-28T20:43:51.681Z,101121.56
2022-11-28T20:46:53.701Z,101114.00
2022-11-28T20:49:56.010Z,101109.69
2022-11-28T20:52:58.029Z,101105.22
2022-11-28T20:56:10.930Z,101110.09
2022-11-28T20:59:16.174Z,101105.28
2022-11-28T21:02:18.075Z,101103.62
2022-11-28T21:05:20.256Z,101097.25
2022-11-28T21:08:22.000Z,101101.09
2022-11-28T21:11:50.516Z,101107.16
2022-11-28T21:14:47.583Z,101099.28
2022-11-28T21:17:49.912Z,101099.44
2022-11-28T21:20:52.954Z,101104.56
2022-11-28T21:24:03.326Z,101099.28
2022-11-28T21:27:05.336Z,101094.84
2022-11-28T21:30:07.850Z,101099.47
2022-11-28T21:33:11.416Z,101101.87
2022-11-28T21:36:13.382Z,101095.34
2022-11-28T21:39:17.387Z,101098.81
2022-11-28T21:42:20.702Z,101100.88
2022-11-28T21:45:23.975Z,101099.50
2022-11-28T21:48:25.526Z,101098.47
2022-11-28T21:51:28.773Z,101102.81
2022-11-28T21:54:30.343Z,101104.84
2022-11-28T21:57:31.904Z,101101.03
2022-11-28T22:00:52.576Z,101102.72
2022-11-28T22:04:00.646Z,101103.44
2022-11-28T22:07:03.915Z,101113.22
2022-11-28T22:10:06.327Z,101114.00
2022-11-28T22:13:07.976Z,101112.47
2022-11-28T22:16:20.476Z,101108.16
2022-11-28T22:19:22.184Z,101104.28
2022-11-28T22:22:27.320Z,101108.00
2022-11-28T22:25:28.971Z,101105.72
2022-11-28T22:28:32.132Z,101104.56
2022-11-28T22:31:34.016Z,101108.41
2022-11-28T22:34:39.667Z,101099.81
2022-11-28T22:37:41.692Z,101107.00
2022-11-28T22:40:43.386Z,101101.63
2022-11-28T22:43:46.152Z,101106.75
2022-11-28T22:46:47.750Z,101112.91
2022-11-28T22:49:49.300Z,101108.81
2022-11-28T22:52:50.877Z,101114.84
2022-11-28T22:55:52.442Z,101109.31
2022-11-28T22:58:54.011Z,101111.75
2022-11-28T23:01:55.662Z,101114.31
2022-11-28T23:04:57.735Z,101110.31
2022-11-28T23:07:59.372Z,101110.06
2022-11-28T23:11:08.507Z,101108.16
2022-11-28T23:14:12.945Z,101112.13
2022-11-28T23:17:14.510Z,101114.31
2022-11-28T23:20:16.155Z,101118.56
2022-11-28T23:23:17.733Z,101119.69
2022-11-28T23:26:23.178Z,101124.19
2022-11-28T23:29:24.796Z,101124.44
2022-11-28T23:32:27.507Z,101112.75
2022-11-28T23:35:29.043Z,101112.28
2022-11-28T23:38:30.704Z,101119.56
2022-11-28T23:41:32.930Z,101119.16
2022-11-28T23:44:34.527Z,101117.50
2022-11-28T23:47:36.093Z,101116.31
2022-11-28T23:50:37.659Z,101119.41
2022-11-28T23:53:40.313Z,101111.34
2022-11-28T23:56:42.331Z,101121.22
2022-11-28T23:59:43.911Z,101117.50
